createdAt,value
2023-04-18T00:00:43.042Z,95708.06
2023-04-18T00:03:10.912Z,95695.28
2023-04-18T00:05:38.971Z,95707.47
2023-04-18T00:08:08.244Z,95700.97
2023-04-18T00:10:35.955Z,95701.00
2023-04-18T00:13:03.967Z,95697.22
2023-04-18T00:15:31.718Z,95691.53
2023-04-18T00:18:00.787Z,95694.47
2023-04-18T00:20:28.669Z,95699.06
2023-04-18T00:22:56.427Z,95698.50
2023-04-18T00:25:25.577Z,95698.47
2023-04-18T00:27:53.311Z,95696.56
2023-04-18T00:30:21.279Z,95694.94
2023-04-18T00:32:49.009Z,95697.63
2023-04-18T00:35:16.772Z,95702.72
2023-04-18T00:37:44.485Z,95701.34
2023-04-18T00:40:12.846Z,95701.06
2023-04-18T00:42:41.951Z,95692.16
2023-04-18T00:45:10.693Z,95694.03
2023-04-18T00:47:38.483Z,95694.28
2023-04-18T00:50:07.840Z,95697.53
2023-04-18T00:52:36.008Z,95688.88
2023-04-18T00:55:05.015Z,95696.69
2023-04-18T00:57:32.794Z,95698.06
2023-04-18T01:00:04.405Z,95698.88
2023-04-18T01:02:32.223Z,95699.13
2023-04-18T01:05:00.053Z,95698.31
2023-04-18T01:07:27.912Z,95701.31
2023-04-18T01:09:55.831Z,95694.84
2023-04-18T01:12:23.534Z,95697.84
2023-04-18T01:14:51.382Z,95691.41
2023-04-18T01:17:20.536Z,95684.38
2023-04-18T01:19:48.193Z,95687.63
2023-04-18T01:22:16.351Z,95692.22
2023-04-18T01:24:45.393Z,95684.41
2023-04-18T01:27:13.591Z,95690.38
2023-04-18T01:29:41.652Z,95686.88
2023-04-18T01:32:09.378Z,95692.25
2023-04-18T01:34:37.141Z,95685.00
2023-04-18T01:37:04.868Z,95680.16
2023-04-18T01:39:32.582Z,95684.50
2023-04-18T01:42:02.382Z,95683.09
2023-04-18T01:44:30.118Z,95674.75
2023-04-18T01:46:57.891Z,95679.53
2023-04-18T01:49:25.636Z,95680.09
2023-04-18T01:51:53.299Z,95681.47
2023-04-18T01:54:21.228Z,95681.19
2023-04-18T01:56:48.918Z,95678.22
2023-04-18T01:59:17.966Z,95674.97
2023-04-18T02:01:45.714Z,95678.72
2023-04-18T02:04:13.598Z,95670.88
2023-04-18T02:06:41.484Z,95673.63
2023-04-18T02:09:09.173Z,95672.25
2023-04-18T02:11:36.846Z,95674.66
2023-04-18T02:14:04.627Z,95663.59
2023-04-18T02:16:34.068Z,95670.88
2023-04-18T02:19:04.311Z,95671.13
2023-04-18T02:21:32.004Z,95676.84
2023-04-18T02:23:59.653Z,95674.09
2023-04-18T02:26:27.288Z,95680.06
2023-04-18T02:28:55.020Z,95678.16
2023-04-18T02:31:22.729Z,95678.69
2023-04-18T02:33:51.785Z,95677.34
2023-04-18T02:36:19.473Z,95681.13
2023-04-18T02:38:47.159Z,95681.94
2023-04-18T02:41:17.431Z,95676.53
2023-04-18T02:43:45.167Z,95675.47
2023-04-18T02:46:13.036Z,95687.34
2023-04-18T02:48:40.839Z,95681.38
2023-04-18T02:51:10.793Z,95674.91
2023-04-18T02:53:38.446Z,95680.59
2023-04-18T02:56:06.886Z,95684.38
2023-04-18T02:58:35.780Z,95680.88
2023-04-18T03:01:03.467Z,95672.72
2023-04-18T03:03:31.235Z,95677.06
2023-04-18T03:06:00.238Z,95681.59
2023-04-18T03:08:29.330Z,95679.41
2023-04-18T03:10:57.000Z,95685.38
2023-04-18T03:13:24.766Z,95681.88
2023-04-18T03:15:52.473Z,95677.53
2023-04-18T03:18:20.671Z,95675.66
2023-04-18T03:20:48.294Z,95682.69
2023-04-18T03:23:16.015Z,95672.97
2023-04-18T03:25:45.071Z,95677.31
2023-04-18T03:28:12.751Z,95669.72
2023-04-18T03:30:40.403Z,95668.44
2023-04-18T03:33:08.626Z,95667.38
2023-04-18T03:35:36.277Z,95669.78
2023-04-18T03:38:04.033Z,95665.44
2023-04-18T03:40:31.706Z,95670.03
2023-04-18T03:43:00.842Z,95670.81
2023-04-18T03:45:28.729Z,95668.38
2023-04-18T03:47:56.542Z,95664.63
2023-04-18T03:50:25.643Z,95661.38
2023-04-18T03:52:53.397Z,95657.34
2023-04-18T03:55:21.800Z,95660.81
2023-04-18T03:57:49.462Z,95669.50
2023-04-18T04:00:19.009Z,95678.09
2023-04-18T04:02:46.846Z,95670.53
2023-04-18T04:05:14.678Z,95662.69
2023-04-18T04:07:42.365Z,95671.88
2023-04-18T04:10:10.623Z,95672.44
2023-04-18T04:12:38.289Z,95674.31
2023-04-18T04:15:07.153Z,95679.72
2023-04-18T04:17:36.313Z,95669.22
2023-04-18T04:20:04.391Z,95672.72
2023-04-18T04:22:32.727Z,95678.91
2023-04-18T04:25:00.792Z,95671.91
2023-04-18T04:27:28.509Z,95669.19
2023-04-18T04:29:56.614Z,95682.41
2023-04-18T04:32:25.145Z,95686.50
2023-04-18T04:34:56.260Z,95675.47
2023-04-18T04:37:23.936Z,95672.75
2023-04-18T04:39:52.285Z,95675.16
2023-04-18T04:42:20.407Z,95681.34
2023-04-18T04:44:48.059Z,95669.81
2023-04-18T04:47:15.754Z,95670.31
2023-04-18T04:49:43.395Z,95684.09
2023-04-18T04:52:12.499Z,95669.53
2023-04-18T04:54:40.136Z,95681.91
2023-04-18T04:57:07.906Z,95670.28
2023-04-18T04:59:35.628Z,95676.75
2023-04-18T05:02:03.491Z,95672.97
2023-04-18T05:04:31.393Z,95676.50
2023-04-18T05:06:59.187Z,95674.91
2023-04-18T05:09:28.368Z,95678.44
2023-04-18T05:11:56.135Z,95679.53
2023-04-18T05:14:24.136Z,95679.53
2023-04-18T05:16:51.891Z,95681.19
2023-04-18T05:19:19.617Z,95689.88
2023-04-18T05:21:47.258Z,95680.16
2023-04-18T05:24:15.181Z,95681.78
2023-04-18T05:26:44.510Z,95688.28
2023-04-18T05:29:12.152Z,95684.81
2023-04-18T05:31:39.924Z,95689.41
2023-04-18T05:34:07.670Z,95685.66
2023-04-18T05:36:35.436Z,95690.81
2023-04-18T05:39:03.322Z,95688.41
2023-04-18T05:41:31.033Z,95680.81
2023-04-18T05:44:05.313Z,95684.38
2023-04-18T05:46:45.019Z,95689.28
2023-04-18T05:49:13.102Z,95682.25
2023-04-18T05:51:40.953Z,95688.50
2023-04-18T05:54:08.611Z,95693.91
2023-04-18T05:56:36.557Z,95687.16
2023-04-18T05:59:05.597Z,95689.63
2023-04-18T06:01:33.488Z,95695.06
2023-04-18T06:04:01.647Z,95695.63
2023-04-18T06:06:29.553Z,95696.44
2023-04-18T06:08:57.200Z,95698.31
2023-04-18T06:11:24.910Z,95691.53
2023-04-18T06:13:55.596Z,95683.69
2023-04-18T06:16:24.706Z,95691.78
2023-04-18T06:18:52.496Z,95688.81
2023-04-18T06:21:21.299Z,95696.94
2023-04-18T06:23:49.206Z,95690.66
2023-04-18T06:26:17.181Z,95691.75
2023-04-18T06:28:44.852Z,95697.38
2023-04-18T06:31:12.579Z,95706.81
2023-04-18T06:33:41.717Z,95711.94
2023-04-18T06:36:10.215Z,95705.19
2023-04-18T06:38:38.032Z,95708.34
2023-04-18T06:41:06.062Z,95705.66
2023-04-18T06:43:33.724Z,95718.13
2023-04-18T06:46:01.462Z,95705.38
2023-04-18T06:48:29.166Z,95709.19
2023-04-18T06:50:58.183Z,95710.81
2023-04-18T06:53:25.958Z,95704.34
2023-04-18T06:55:53.733Z,95700.78
2023-04-18T06:58:21.398Z,95703.94
2023-04-18T07:00:52.022Z,95703.25
2023-04-18T07:03:19.890Z,95706.44
2023-04-18T07:05:47.796Z,95692.50
2023-04-18T07:08:17.221Z,95696.28
2023-04-18T07:10:44.890Z,95696.56
2023-04-18T07:13:12.539Z,95697.91
2023-04-18T07:15:40.192Z,95703.88
2023-04-18T07:18:07.892Z,95707.97
2023-04-18T07:20:35.637Z,95707.13
2023-04-18T07:23:03.305Z,95697.56
2023-04-18T07:25:32.888Z,95696.97
2023-04-18T07:28:00.580Z,95692.34
2023-04-18T07:30:28.404Z,95696.34
2023-04-18T07:32:56.354Z,95695.50
2023-04-18T07:35:24.240Z,95700.81
2023-04-18T07:37:53.591Z,95701.84
2023-04-18T07:40:22.204Z,95702.88
2023-04-18T07:42:51.202Z,95703.78
2023-04-18T07:45:19.117Z,95707.59
2023-04-18T07:47:46.862Z,95703.00
2023-04-18T07:50:14.617Z,95695.97
2023-04-18T07:52:42.361Z,95699.63
2023-04-18T07:55:10.656Z,95691.13
2023-04-18T07:57:38.322Z,95692.78
2023-04-18T08:00:09.446Z,95693.81
2023-04-18T08:02:37.521Z,95688.56
2023-04-18T08:05:06.010Z,95690.59
2023-04-18T08:07:33.728Z,95692.84
2023-04-18T08:10:01.452Z,95691.22
2023-04-18T08:12:29.142Z,95695.56
2023-04-18T08:14:56.853Z,95700.38
2023-04-18T08:17:25.957Z,95700.66
2023-04-18T08:19:53.641Z,95709.88
2023-04-18T08:22:21.296Z,95706.56
2023-04-18T08:25:03.317Z,95706.69
2023-04-18T08:27:32.427Z,95707.19
2023-04-18T08:30:00.598Z,95713.75
2023-04-18T08:32:29.840Z,95707.72
2023-04-18T08:34:57.579Z,95709.69
2023-04-18T08:37:25.446Z,95719.13
2023-04-18T08:39:53.098Z,95713.59
2023-04-18T08:42:21.610Z,95724.41
2023-04-18T08:44:54.014Z,95723.44
2023-04-18T08:47:21.819Z,95735.94
2023-04-18T08:49:52.204Z,95737.53
2023-04-18T08:52:21.574Z,95744.09
2023-04-18T08:54:50.988Z,95740.63
2023-04-18T08:57:23.656Z,95739.03
2023-04-18T08:59:53.482Z,95753.84
2023-04-18T09:02:23.228Z,95763.38
2023-04-18T09:04:53.620Z,95759.63
2023-04-18T09:07:27.979Z,95760.44
2023-04-18T09:09:58.329Z,95765.31
2023-04-18T09:12:27.519Z,95760.69
2023-04-18T09:14:57.902Z,95762.81
2023-04-18T09:17:35.239Z,95766.88
2023-04-18T09:20:06.099Z,95770.00
2023-04-18T09:22:48.451Z,95752.06
2023-04-18T09:25:27.377Z,95751.63
2023-04-18T09:27:56.061Z,95753.22
2023-04-18T09:30:36.926Z,95750.94
2023-04-18T09:33:07.532Z,95751.75
2023-04-18T09:35:36.951Z,95748.81
2023-04-18T09:38:04.829Z,95749.28
2023-04-18T09:40:33.417Z,95753.78
2023-04-18T09:43:01.303Z,95751.84
2023-04-18T09:45:28.994Z,95746.56
2023-04-18T09:47:57.768Z,95746.66
2023-04-18T09:50:25.592Z,95754.25
2023-04-18T09:52:56.062Z,95752.41
2023-04-18T09:55:23.899Z,95749.16
2023-04-18T09:57:54.002Z,95748.47
2023-04-18T10:00:26.416Z,95741.25
2023-04-18T10:02:59.112Z,95743.94
2023-04-18T10:05:28.450Z,95732.03
2023-04-18T10:07:58.378Z,95736.66
2023-04-18T10:10:26.776Z,95725.28
2023-04-18T10:12:55.817Z,95734.06
2023-04-18T10:15:26.308Z,95731.50
2023-04-18T10:18:04.587Z,95726.94
2023-04-18T10:20:35.064Z,95731.78
2023-04-18T10:23:36.244Z,95729.88
2023-04-18T10:26:05.038Z,95732.53
2023-04-18T10:28:51.101Z,95727.56
2023-04-18T10:31:18.817Z,95723.94
2023-04-18T10:34:00.669Z,95720.81
2023-04-18T10:36:32.428Z,95719.41
2023-04-18T10:39:04.225Z,95713.03
2023-04-18T10:41:32.889Z,95715.75
2023-04-18T10:44:18.387Z,95715.66
2023-04-18T10:47:19.458Z,95715.88
2023-04-18T10:49:58.845Z,95712.53
2023-04-18T10:52:27.840Z,95721.94
2023-04-18T10:55:07.278Z,95720.59
2023-04-18T10:57:42.907Z,95719.19
2023-04-18T11:00:13.812Z,95708.66
2023-04-18T11:02:48.687Z,95718.28
2023-04-18T11:05:21.013Z,95717.06
2023-04-18T11:07:49.113Z,95707.41
2023-04-18T11:10:23.747Z,95713.38
2023-04-18T11:12:52.028Z,95712.00
2023-04-18T11:15:22.368Z,95711.41
2023-04-18T11:17:58.356Z,95713.31
2023-04-18T11:20:26.597Z,95709.00
2023-04-18T11:22:56.147Z,95702.63
2023-04-18T11:25:27.667Z,95698.81
2023-04-18T11:27:56.083Z,95702.19
2023-04-18T11:30:24.092Z,95706.25
2023-04-18T11:32:57.238Z,95711.13
2023-04-18T11:35:25.103Z,95712.78
2023-04-18T11:37:53.101Z,95711.19
2023-04-18T11:40:21.093Z,95711.13
2023-04-18T11:42:50.399Z,95711.69
2023-04-18T11:45:18.158Z,95715.44
2023-04-18T11:47:46.957Z,95707.84
2023-04-18T11:50:15.011Z,95720.53
2023-04-18T11:52:43.485Z,95713.25
2023-04-18T11:55:14.071Z,95705.94
2023-04-18T11:57:42.228Z,95709.56
2023-04-18T12:00:13.555Z,95714.34
2023-04-18T12:02:43.574Z,95711.00
2023-04-18T12:05:12.145Z,95707.22
2023-04-18T12:07:41.733Z,95701.94
2023-04-18T12:10:10.781Z,95700.22
2023-04-18T12:12:38.456Z,95703.56
2023-04-18T12:15:09.235Z,95711.63
2023-04-18T12:17:39.205Z,95709.47
2023-04-18T12:20:09.959Z,95710.63
2023-04-18T12:22:41.943Z,95707.03
2023-04-18T12:25:27.109Z,95705.75
2023-04-18T12:27:58.006Z,95719.47
2023-04-18T12:30:27.763Z,95716.03
2023-04-18T12:32:59.994Z,95713.00
2023-04-18T12:35:28.178Z,95717.91
2023-04-18T12:37:59.641Z,95710.13
2023-04-18T12:40:28.458Z,95713.31
2023-04-18T12:42:57.170Z,95700.81
2023-04-18T12:45:25.241Z,95709.38
2023-04-18T12:47:53.836Z,95704.75
2023-04-18T12:50:24.806Z,95710.75
2023-04-18T12:52:53.780Z,95718.56
2023-04-18T12:55:22.646Z,95706.22
2023-04-18T12:57:54.353Z,95713.00
2023-04-18T13:00:23.458Z,95706.16
2023-04-18T13:02:52.910Z,95703.19
2023-04-18T13:05:24.115Z,95707.03
2023-04-18T13:07:58.678Z,95705.44
2023-04-18T13:10:29.736Z,95705.16
2023-04-18T13:12:57.422Z,95705.16
2023-04-18T13:15:26.091Z,95711.94
2023-04-18T13:17:54.178Z,95708.59
2023-04-18T13:20:23.360Z,95706.56
2023-04-18T13:22:51.100Z,95704.81
2023-04-18T13:25:18.873Z,95700.91
2023-04-18T13:27:46.875Z,95718.53
2023-04-18T13:30:14.876Z,95713.47
2023-04-18T13:32:43.984Z,95709.44
2023-04-18T13:35:12.320Z,95707.78
2023-04-18T13:37:41.703Z,95713.28
2023-04-18T13:40:10.632Z,95706.06
2023-04-18T13:42:39.458Z,95717.38
2023-04-18T13:45:07.876Z,95718.28
2023-04-18T13:47:36.626Z,95718.28
2023-04-18T13:50:04.528Z,95727.59
2023-04-18T13:52:32.338Z,95724.53
2023-04-18T13:55:01.646Z,95726.34
2023-04-18T13:57:32.147Z,95722.38
2023-04-18T14:00:00.183Z,95726.00
2023-04-18T14:02:28.083Z,95729.09
2023-04-18T14:04:55.989Z,95725.50
2023-04-18T14:07:23.772Z,95732.88
2023-04-18T14:09:53.390Z,95728.78
2023-04-18T14:12:23.054Z,95724.22
2023-04-18T14:14:50.795Z,95736.22
2023-04-18T14:17:18.524Z,95730.19
2023-04-18T14:19:46.253Z,95734.63
2023-04-18T14:22:13.986Z,95735.09
2023-04-18T14:24:41.676Z,95737.09
2023-04-18T14:27:09.429Z,95743.28
2023-04-18T14:29:38.499Z,95742.53
2023-04-18T14:32:07.119Z,95739.00
2023-04-18T14:34:36.667Z,95737.78
2023-04-18T14:37:05.234Z,95740.31
2023-04-18T14:39:33.029Z,95743.34
2023-04-18T14:42:01.435Z,95757.84
2023-04-18T14:44:30.361Z,95756.31
2023-04-18T14:46:59.563Z,95750.97
2023-04-18T14:49:27.289Z,95750.81
2023-04-18T14:51:55.077Z,95756.00
2023-04-18T14:54:22.810Z,95753.00
2023-04-18T14:56:50.612Z,95760.59
2023-04-18T14:59:18.620Z,95750.22
2023-04-18T15:01:46.749Z,95760.81
2023-04-18T15:04:16.321Z,95756.81
2023-04-18T15:06:44.277Z,95753.00
2023-04-18T15:09:11.993Z,95755.03
2023-04-18T15:11:39.660Z,95760.19
2023-04-18T15:14:07.476Z,95756.06
2023-04-18T15:16:35.529Z,95758.78
2023-04-18T15:19:03.184Z,95753.75
2023-04-18T15:21:32.217Z,95756.53
2023-04-18T15:24:02.148Z,95752.13
2023-04-18T15:26:31.692Z,95755.06
2023-04-18T15:29:02.306Z,95750.00
2023-04-18T15:31:30.549Z,95753.59
2023-04-18T15:33:58.243Z,95755.06
2023-04-18T15:36:26.054Z,95757.53
2023-04-18T15:38:55.100Z,95765.97
2023-04-18T15:41:23.194Z,95762.50
2023-04-18T15:43:50.867Z,95762.81
2023-04-18T15:46:18.692Z,95763.94
2023-04-18T15:48:46.390Z,95767.19
2023-04-18T15:51:14.082Z,95771.03
2023-04-18T15:53:41.947Z,95782.72
2023-04-18T15:56:11.176Z,95778.94
2023-04-18T15:58:38.881Z,95779.22
2023-04-18T16:01:07.156Z,95780.91
2023-04-18T16:03:35.157Z,95776.03
2023-04-18T16:06:04.605Z,95782.00
2023-04-18T16:08:33.451Z,95787.38
2023-04-18T16:11:01.323Z,95786.53
2023-04-18T16:13:30.574Z,95777.63
2023-04-18T16:15:58.341Z,95783.56
2023-04-18T16:18:26.147Z,95781.66
2023-04-18T16:20:53.841Z,95777.00
2023-04-18T16:23:21.502Z,95777.25
2023-04-18T16:25:49.465Z,95773.72
2023-04-18T16:28:17.212Z,95770.75
2023-04-18T16:30:46.539Z,95780.28
2023-04-18T16:33:14.505Z,95777.03
2023-04-18T16:35:42.359Z,95766.97
2023-04-18T16:38:10.075Z,95772.97
2023-04-18T16:40:37.991Z,95767.59
2023-04-18T16:43:05.693Z,95770.22
2023-04-18T16:45:33.983Z,95771.84
2023-04-18T16:48:03.294Z,95780.25
2023-04-18T16:50:31.138Z,95776.63
2023-04-18T16:52:58.868Z,95777.09
2023-04-18T16:55:27.387Z,95775.88
2023-04-18T16:57:55.080Z,95785.66
2023-04-18T17:00:22.982Z,95776.41
2023-04-18T17:02:50.890Z,95778.88
2023-04-18T17:05:20.071Z,95782.44
2023-04-18T17:07:49.742Z,95780.53
2023-04-18T17:10:17.562Z,95783.34
2023-04-18T17:12:46.111Z,95786.75
2023-04-18T17:15:14.399Z,95787.09
2023-04-18T17:17:42.129Z,95799.97
2023-04-18T17:20:10.793Z,95792.69
2023-04-18T17:22:40.190Z,95796.00
2023-04-18T17:25:08.691Z,95800.38
2023-04-18T17:27:36.459Z,95809.34
2023-04-18T17:30:04.739Z,95809.41
2023-04-18T17:32:32.685Z,95815.66
2023-04-18T17:35:04.106Z,95810.25
2023-04-18T17:37:31.828Z,95807.31
2023-04-18T17:40:02.827Z,95808.72
2023-04-18T17:42:30.527Z,95823.94
2023-04-18T17:44:58.270Z,95818.25
2023-04-18T17:47:25.937Z,95828.88
2023-04-18T17:49:53.760Z,95823.47
2023-04-18T17:52:21.898Z,95831.88
2023-04-18T17:54:49.575Z,95835.38
2023-04-18T17:57:18.641Z,95836.97
2023-04-18T17:59:46.346Z,95843.19
2023-04-18T18:02:14.216Z,95851.03
2023-04-18T18:04:42.496Z,95852.38
2023-04-18T18:07:10.187Z,95850.44
2023-04-18T18:09:37.910Z,95854.25
2023-04-18T18:12:05.858Z,95859.69
2023-04-18T18:14:34.921Z,95866.41
2023-04-18T18:17:02.831Z,95866.38
2023-04-18T18:19:30.692Z,95863.13
2023-04-18T18:21:58.406Z,95873.66
2023-04-18T18:24:26.901Z,95878.78
2023-04-18T18:26:54.545Z,95892.88
2023-04-18T18:29:22.151Z,95885.00
2023-04-18T18:31:51.244Z,95883.69
2023-04-18T18:34:19.927Z,95892.44
2023-04-18T18:36:47.748Z,95885.66
2023-04-18T18:39:16.608Z,95892.19
2023-04-18T18:41:44.471Z,95887.06
2023-04-18T18:44:12.763Z,95895.19
2023-04-18T18:46:41.099Z,95900.88
2023-04-18T18:49:11.799Z,95900.34
2023-04-18T18:51:40.879Z,95893.84
2023-04-18T18:54:08.611Z,95896.31
2023-04-18T18:56:38.860Z,95894.94
2023-04-18T18:59:06.717Z,95902.81
2023-04-18T19:01:34.690Z,95897.66
2023-04-18T19:04:02.717Z,95898.78
2023-04-18T19:06:32.112Z,95897.41
2023-04-18T19:08:59.857Z,95894.44
2023-04-18T19:11:27.831Z,95909.88
2023-04-18T19:13:55.438Z,95893.88
2023-04-18T19:16:23.279Z,95911.75
2023-04-18T19:18:51.127Z,95906.63
2023-04-18T19:21:20.153Z,95912.59
2023-04-18T19:23:49.164Z,95905.81
2023-04-18T19:26:17.107Z,95906.91
2023-04-18T19:28:46.086Z,95915.03
2023-04-18T19:31:13.896Z,95908.00
2023-04-18T19:33:41.633Z,95906.09
2023-04-18T19:36:09.377Z,95914.50
2023-04-18T19:38:37.091Z,95905.28
2023-04-18T19:41:06.108Z,95905.81
2023-04-18T19:43:34.631Z,95911.50
2023-04-18T19:46:02.397Z,95916.66
2023-04-18T19:48:30.176Z,95913.97
2023-04-18T19:50:57.919Z,95915.03
2023-04-18T19:53:25.912Z,95913.41
2023-04-18T19:55:54.964Z,95910.97
2023-04-18T19:58:36.894Z,95911.78
2023-04-18T20:01:06.028Z,95914.50
2023-04-18T20:03:34.382Z,95918.00
2023-04-18T20:06:02.599Z,95915.03
2023-04-18T20:08:30.463Z,95911.50
2023-04-18T20:10:58.120Z,95910.72
2023-04-18T20:13:25.812Z,95910.69
2023-04-18T20:15:56.095Z,95911.75
2023-04-18T20:18:24.935Z,95916.66
2023-04-18T20:20:53.092Z,95913.41
2023-04-18T20:23:20.841Z,95905.28
2023-04-18T20:25:48.503Z,95909.31
2023-04-18T20:28:20.875Z,95900.09
2023-04-18T20:30:48.600Z,95915.78
2023-04-18T20:33:17.677Z,95911.19
2023-04-18T20:35:46.760Z,95911.47
2023-04-18T20:38:14.969Z,95911.22
2023-04-18T20:40:44.819Z,95910.94
2023-04-18T20:43:13.507Z,95914.44
2023-04-18T20:45:42.898Z,95910.94
2023-04-18T20:48:11.574Z,95919.06
2023-04-18T20:50:41.063Z,95909.06
2023-04-18T20:53:08.764Z,95913.38
2023-04-18T20:55:36.479Z,95904.16
2023-04-18T20:58:04.128Z,95914.44
2023-04-18T21:00:31.815Z,95911.47
2023-04-18T21:02:59.617Z,95905.25
2023-04-18T21:05:27.453Z,95910.94
2023-04-18T21:07:56.613Z,95909.03
2023-04-18T21:10:26.626Z,95908.50
2023-04-18T21:12:54.294Z,95910.91
2023-04-18T21:15:21.964Z,95904.94
2023-04-18T21:17:50.980Z,95909.31
2023-04-18T21:20:18.774Z,95905.53
2023-04-18T21:22:46.539Z,95908.75
2023-04-18T21:25:16.431Z,95913.66
2023-04-18T21:27:44.239Z,95916.06
2023-04-18T21:30:12.520Z,95910.09
2023-04-18T21:32:40.313Z,95909.81
2023-04-18T21:35:08.436Z,95913.06
2023-04-18T21:37:36.075Z,95914.41
2023-04-18T21:40:04.495Z,95915.50
2023-04-18T21:42:35.071Z,95913.06
2023-04-18T21:45:02.852Z,95914.13
2023-04-18T21:47:30.637Z,95914.41
2023-04-18T21:49:58.284Z,95916.28
2023-04-18T21:52:26.038Z,95912.22
2023-04-18T21:54:53.676Z,95914.94
2023-04-18T21:57:21.470Z,95910.59
2023-04-18T21:59:50.442Z,95914.63
2023-04-18T22:02:18.221Z,95914.59
2023-04-18T22:04:45.946Z,95924.06
2023-04-18T22:07:15.402Z,95916.47
2023-04-18T22:09:43.391Z,95912.16
2023-04-18T22:12:11.452Z,95916.19
2023-04-18T22:14:40.293Z,95917.56
2023-04-18T22:17:09.919Z,95919.19
2023-04-18T22:19:37.560Z,95913.47
2023-04-18T22:22:05.902Z,95914.28
2023-04-18T22:24:33.554Z,95898.56
2023-04-18T22:27:02.783Z,95907.50
2023-04-18T22:29:30.408Z,95907.47
2023-04-18T22:31:58.034Z,95903.94
2023-04-18T22:34:33.504Z,95909.91
2023-04-18T22:37:01.015Z,95913.97
2023-04-18T22:39:28.687Z,95905.06
2023-04-18T22:41:56.380Z,95901.28
2023-04-18T22:44:24.095Z,95908.28
2023-04-18T22:46:54.521Z,95906.94
2023-04-18T22:49:23.168Z,95901.28
2023-04-18T22:51:54.195Z,95908.31
2023-04-18T22:59:00.890Z,95908.81
2023-04-18T23:01:28.637Z,95911.50
2023-04-18T23:03:56.641Z,95904.22
2023-04-18T23:06:24.414Z,95901.78
2023-04-18T23:08:52.038Z,95910.16
2023-04-18T23:11:19.679Z,95904.75
2023-04-18T23:13:47.313Z,95905.28
2023-04-18T23:16:16.529Z,95903.13
2023-04-18T23:18:44.214Z,95899.88
2023-04-18T23:21:11.815Z,95900.94
2023-04-18T23:23:39.502Z,95906.06
2023-04-18T23:26:14.085Z,95899.84
2023-04-18T23:28:42.241Z,95897.69
2023-04-18T23:31:10.163Z,95892.81
2023-04-18T23:33:39.157Z,95895.47
2023-04-18T23:36:07.490Z,95893.88
2023-04-18T23:38:37.141Z,95894.13
2023-04-18T23:41:04.758Z,95889.00
2023-04-18T23:43:32.406Z,95891.69
2023-04-18T23:46:00.043Z,95887.63
2023-04-18T23:48:27.733Z,95886.25
2023-04-18T23:50:56.739Z,95889.22
2023-04-18T23:53:24.830Z,95881.91
2023-04-18T23:55:54.011Z,95879.19
2023-04-18T23:58:27.507Z,95882.69
